Famagusta, Cyprus
Current Conditions -  °F | °C
As of 2:20 AM on Thursday 23 Oct 2014 (Local Time) from LCEN Reporting Station
Scattered Clouds Scattered Clouds  
Wind Chill: 61°   Ceiling: Unl
Heat Index: 61°   Visibility: 6mi
Dew Point: 54°   Wind: 7mph
Humidity: 77%   Direction: 250°WSW
Pressure: 29.94"   Gusts: NA
Location:  35.33°N, 34.07°E
Report Text: LCEN 222320Z 25006KT 9999 FEW025 SCT140 16/12 Q1014 NOSIG
Loading
Personal Weather Stations






























Interactive Weather Map
Tropical Storm Tracking
New forecast layout! Learn more

10-Day Weather Forecast

Advertisements
Track Severe Weather on mobile